createdAt,value
2018-10-12T00:01:45.016Z,17.88
2018-10-12T00:02:44.541Z,17.91
2018-10-12T00:04:37.472Z,17.87
2018-10-12T00:05:37.415Z,17.86
2018-10-12T00:07:30.806Z,17.88
2018-10-12T00:08:30.785Z,17.81
2018-10-12T00:10:23.707Z,17.81
2018-10-12T00:11:23.665Z,17.79
2018-10-12T00:13:17.055Z,17.84
2018-10-12T00:14:17.023Z,17.73
2018-10-12T00:16:09.924Z,17.71
2018-10-12T00:17:09.898Z,17.72
2018-10-12T00:19:02.788Z,17.72
2018-10-12T00:20:02.768Z,17.66
2018-10-12T00:21:56.260Z,17.65
2018-10-12T00:22:56.238Z,17.63
2018-10-12T00:24:49.614Z,17.63
2018-10-12T00:25:49.616Z,17.62
2018-10-12T00:27:43.015Z,17.63
2018-10-12T00:28:42.961Z,17.66
2018-10-12T00:30:35.887Z,17.52
2018-10-12T00:31:35.866Z,17.59
2018-10-12T00:33:29.316Z,17.62
2018-10-12T00:34:29.239Z,17.53
2018-10-12T00:36:22.168Z,17.59
2018-10-12T00:37:22.105Z,17.49
2018-10-12T00:39:15.042Z,17.52
2018-10-12T00:40:14.987Z,17.43
2018-10-12T00:42:07.879Z,17.50
2018-10-12T00:43:07.852Z,17.46
2018-10-12T00:45:00.727Z,17.41
2018-10-12T00:46:00.709Z,17.35
2018-10-12T00:47:53.618Z,17.38
2018-10-12T00:48:53.593Z,17.37
2018-10-12T00:50:46.965Z,17.34
2018-10-12T00:51:46.949Z,17.37
2018-10-12T00:53:40.329Z,17.38
2018-10-12T00:54:40.309Z,17.38
2018-10-12T00:56:33.695Z,17.38
2018-10-12T00:57:33.678Z,17.37
2018-10-12T00:59:27.304Z,17.45
2018-10-12T01:00:27.274Z,17.28
2018-10-12T01:02:20.167Z,17.28
2018-10-12T01:03:20.146Z,17.24
2018-10-12T01:05:13.539Z,17.19
2018-10-12T01:06:13.510Z,17.14
2018-10-12T01:08:06.405Z,17.16
2018-10-12T01:09:06.375Z,17.09
2018-10-12T01:10:59.770Z,16.98
2018-10-12T01:11:59.771Z,16.99
2018-10-12T01:13:53.125Z,16.92
2018-10-12T01:14:53.110Z,16.80
2018-10-12T01:16:46.521Z,16.80
2018-10-12T01:17:46.466Z,16.82
2018-10-12T01:19:39.848Z,16.72
2018-10-12T01:20:39.837Z,16.73
2018-10-12T01:22:33.236Z,16.69
2018-10-12T01:23:33.214Z,16.61
2018-10-12T01:25:26.080Z,16.70
2018-10-12T01:26:26.070Z,16.58
2018-10-12T01:28:19.445Z,16.59
2018-10-12T01:29:19.420Z,16.61
2018-10-12T01:31:12.809Z,16.52
2018-10-12T01:32:12.782Z,16.43
2018-10-12T01:34:05.691Z,16.36
2018-10-12T01:35:05.660Z,16.40
2018-10-12T01:36:58.827Z,16.37
2018-10-12T01:37:58.797Z,16.32
2018-10-12T01:39:51.696Z,16.25
2018-10-12T01:40:51.674Z,16.29
2018-10-12T01:42:44.566Z,16.17
2018-10-12T01:43:44.535Z,16.10
2018-10-12T01:45:37.438Z,16.10
2018-10-12T01:46:37.411Z,16.10
2018-10-12T01:48:30.801Z,15.99
2018-10-12T01:49:30.771Z,15.99
2018-10-12T01:51:23.726Z,15.91
2018-10-12T01:52:23.637Z,15.95
2018-10-12T01:54:17.030Z,15.95
2018-10-12T01:55:16.997Z,15.95
2018-10-12T01:57:10.463Z,16.06
2018-10-12T01:58:10.362Z,15.96
2018-10-12T02:00:03.423Z,15.98
2018-10-12T02:01:03.348Z,15.91
2018-10-12T02:02:56.747Z,16.06
2018-10-12T02:03:56.690Z,16.02
2018-10-12T02:05:50.072Z,15.96
2018-10-12T02:06:50.068Z,15.98
2018-10-12T02:08:43.465Z,15.96
2018-10-12T02:09:43.435Z,16.03
2018-10-12T02:11:36.337Z,15.98
2018-10-12T02:12:36.304Z,15.91
2018-10-12T02:14:29.317Z,15.93
2018-10-12T02:15:29.171Z,15.93
2018-10-12T02:17:22.556Z,16.02
2018-10-12T02:18:22.527Z,16.00
2018-10-12T02:20:15.910Z,15.80
2018-10-12T02:21:15.898Z,15.90
2018-10-12T02:23:09.284Z,15.99
2018-10-12T02:24:09.260Z,15.99
2018-10-12T02:26:02.165Z,16.00
2018-10-12T02:27:02.124Z,16.00
2018-10-12T02:28:55.146Z,16.06
2018-10-12T02:29:55.127Z,16.08
2018-10-12T02:31:48.006Z,16.18
2018-10-12T02:32:47.976Z,16.18
2018-10-12T02:34:40.872Z,16.26
2018-10-12T02:35:40.847Z,16.33
2018-10-12T02:37:34.262Z,16.29
2018-10-12T02:38:34.212Z,16.33
2018-10-12T02:40:27.606Z,16.29
2018-10-12T02:41:27.573Z,16.26
2018-10-12T02:43:20.978Z,16.28
2018-10-12T02:44:20.950Z,16.29
2018-10-12T02:46:14.329Z,16.26
2018-10-12T02:47:14.324Z,16.21
2018-10-12T02:49:07.227Z,16.14
2018-10-12T02:50:07.198Z,16.08
2018-10-12T02:52:00.080Z,16.06
2018-10-12T02:53:00.054Z,16.05
2018-10-12T02:54:53.428Z,15.91
2018-10-12T02:55:53.407Z,15.91
2018-10-12T02:57:46.859Z,15.81
2018-10-12T02:58:46.802Z,15.88
2018-10-12T03:00:39.700Z,15.84
2018-10-12T03:01:39.656Z,15.85
2018-10-12T03:03:33.049Z,15.70
2018-10-12T03:04:33.009Z,15.69
2018-10-12T03:06:25.916Z,15.90
2018-10-12T03:07:25.894Z,15.83
2018-10-12T03:09:19.260Z,15.90
2018-10-12T03:10:19.246Z,15.90
2018-10-12T03:12:12.131Z,15.84
2018-10-12T03:13:12.101Z,15.90
2018-10-12T03:15:04.992Z,15.83
2018-10-12T03:16:04.984Z,15.76
2018-10-12T03:17:57.860Z,15.73
2018-10-12T03:18:57.834Z,15.77
2018-10-12T03:20:50.780Z,15.73
2018-10-12T03:21:50.716Z,15.87
2018-10-12T03:23:43.638Z,15.81
2018-10-12T03:24:43.578Z,15.93
2018-10-12T03:26:36.978Z,16.00
2018-10-12T03:27:36.948Z,15.98
2018-10-12T03:29:30.381Z,15.98
2018-10-12T03:30:30.349Z,16.02
2018-10-12T03:32:23.232Z,16.13
2018-10-12T03:33:23.212Z,16.09
2018-10-12T03:35:16.117Z,16.16
2018-10-12T03:36:16.079Z,16.16
2018-10-12T03:38:09.473Z,16.26
2018-10-12T03:39:09.435Z,16.33
2018-10-12T03:41:02.827Z,16.28
2018-10-12T03:42:02.812Z,16.29
2018-10-12T03:43:56.197Z,16.36
2018-10-12T03:44:56.187Z,16.32
2018-10-12T03:46:49.575Z,16.37
2018-10-12T03:47:49.530Z,16.37
2018-10-12T03:49:42.944Z,16.42
2018-10-12T03:50:42.908Z,16.33
2018-10-12T03:52:36.361Z,16.40
2018-10-12T03:53:35.774Z,16.43
2018-10-12T03:55:28.658Z,16.32
2018-10-12T03:56:28.635Z,16.37
2018-10-12T03:58:21.531Z,16.40
2018-10-12T03:59:21.503Z,16.42
2018-10-12T04:01:14.402Z,16.44
2018-10-12T04:02:14.383Z,16.40
2018-10-12T04:04:07.292Z,16.52
2018-10-12T04:05:07.240Z,16.44
2018-10-12T04:07:00.704Z,16.49
2018-10-12T04:08:00.607Z,16.39
2018-10-12T04:09:53.534Z,16.47
2018-10-12T04:10:53.477Z,16.52
2018-10-12T04:12:47.427Z,16.44
2018-10-12T04:13:47.399Z,16.42
2018-10-12T04:15:40.801Z,16.46
2018-10-12T04:16:40.766Z,16.40
2018-10-12T04:18:33.666Z,16.54
2018-10-12T04:19:33.659Z,16.49
2018-10-12T04:21:27.059Z,16.58
2018-10-12T04:22:26.996Z,16.54
2018-10-12T04:24:19.954Z,16.57
2018-10-12T04:25:20.005Z,16.58
2018-10-12T04:27:12.771Z,16.62
2018-10-12T04:28:12.756Z,16.67
2018-10-12T04:30:06.695Z,16.62
2018-10-12T04:31:06.681Z,16.59
2018-10-12T04:33:00.061Z,16.67
2018-10-12T04:34:00.034Z,16.61
2018-10-12T04:35:52.927Z,16.65
2018-10-12T04:36:52.917Z,16.67
2018-10-12T04:38:46.377Z,16.65
2018-10-12T04:39:46.286Z,16.69
2018-10-12T04:41:39.230Z,16.67
2018-10-12T04:42:39.158Z,16.67
2018-10-12T04:44:32.655Z,16.74
2018-10-12T04:45:32.496Z,16.64
2018-10-12T04:47:25.660Z,16.65
2018-10-12T04:48:25.423Z,16.64
2018-10-12T04:50:18.303Z,16.70
2018-10-12T04:51:18.264Z,16.72
2018-10-12T04:53:11.171Z,16.72
2018-10-12T04:54:11.117Z,16.79
2018-10-12T04:57:36.157Z,16.69
2018-10-12T04:58:36.132Z,16.72
2018-10-12T05:00:30.239Z,16.87
2018-10-12T05:01:29.476Z,16.84
2018-10-12T05:03:22.903Z,16.83
2018-10-12T05:04:22.845Z,16.90
2018-10-12T05:06:16.265Z,16.87
2018-10-12T05:07:16.214Z,16.84
2018-10-12T05:09:09.125Z,16.88
2018-10-12T05:10:09.094Z,16.80
2018-10-12T05:12:02.554Z,16.88
2018-10-12T05:13:02.462Z,16.76
2018-10-12T05:14:55.833Z,16.90
2018-10-12T05:15:55.825Z,16.90
2018-10-12T05:17:49.398Z,16.88
2018-10-12T05:18:49.196Z,16.88
2018-10-12T05:20:42.588Z,16.91
2018-10-12T05:21:42.603Z,16.88
2018-10-12T05:23:35.487Z,16.91
2018-10-12T05:24:35.438Z,16.95
2018-10-12T05:26:28.325Z,17.02
2018-10-12T05:27:28.314Z,16.91
2018-10-12T05:29:21.751Z,16.95
2018-10-12T05:30:21.727Z,16.88
2018-10-12T05:32:14.571Z,16.95
2018-10-12T05:33:14.546Z,16.83
2018-10-12T05:35:07.982Z,16.90
2018-10-12T05:36:07.947Z,16.84
2018-10-12T05:38:00.855Z,16.87
2018-10-12T05:39:00.787Z,16.74
2018-10-12T05:40:53.690Z,16.84
2018-10-12T05:41:53.782Z,16.74
2018-10-12T05:43:48.157Z,16.73
2018-10-12T05:44:48.022Z,16.69
2018-10-12T05:46:40.951Z,16.67
2018-10-12T05:47:40.883Z,16.64
2018-10-12T05:49:33.955Z,16.70
2018-10-12T05:50:33.760Z,16.64
2018-10-12T05:52:27.230Z,16.57
2018-10-12T05:53:26.637Z,16.52
2018-10-12T05:55:19.538Z,16.54
2018-10-12T05:56:19.508Z,16.54
2018-10-12T05:58:12.926Z,16.55
2018-10-12T05:59:12.879Z,16.59
2018-10-12T06:01:05.961Z,16.51
2018-10-12T06:02:05.752Z,16.54
2018-10-12T06:03:58.925Z,16.51
2018-10-12T06:04:58.621Z,16.57
2018-10-12T06:06:52.183Z,16.54
2018-10-12T06:07:51.979Z,16.57
2018-10-12T06:11:16.966Z,16.59
2018-10-12T06:12:16.929Z,16.52
2018-10-12T06:14:09.833Z,16.65
2018-10-12T06:15:09.807Z,16.67
2018-10-12T06:17:03.197Z,16.64
2018-10-12T06:18:03.157Z,16.61
2018-10-12T06:19:56.049Z,16.70
2018-10-12T06:20:56.037Z,16.79
2018-10-12T06:22:49.531Z,16.76
2018-10-12T06:23:49.388Z,16.79
2018-10-12T06:25:42.910Z,16.95
2018-10-12T06:26:42.799Z,17.06
2018-10-12T06:28:35.804Z,17.13
2018-10-12T06:29:35.631Z,17.19
2018-10-12T06:31:28.512Z,17.24
2018-10-12T06:32:28.509Z,17.35
2018-10-12T06:34:21.909Z,17.39
2018-10-12T06:35:21.869Z,17.46
2018-10-12T06:37:15.324Z,17.53
2018-10-12T06:38:14.731Z,17.47
2018-10-12T06:40:07.656Z,17.62
2018-10-12T06:41:07.678Z,17.62
2018-10-12T06:43:00.520Z,17.73
2018-10-12T06:44:00.501Z,17.69
2018-10-12T06:45:53.579Z,17.78
2018-10-12T06:46:53.541Z,17.79
2018-10-12T06:48:46.995Z,17.84
2018-10-12T06:49:46.928Z,17.87
2018-10-12T06:51:40.295Z,17.94
2018-10-12T06:52:40.291Z,17.94
2018-10-12T06:54:33.692Z,17.90
2018-10-12T06:55:33.660Z,17.94
2018-10-12T06:57:27.127Z,17.96
2018-10-12T06:58:27.102Z,17.93
2018-10-12T07:00:20.483Z,17.99
2018-10-12T07:01:20.449Z,18.12
2018-10-12T07:03:13.958Z,18.08
2018-10-12T07:04:13.820Z,18.09
2018-10-12T07:06:07.209Z,18.15
2018-10-12T07:07:07.182Z,18.21
2018-10-12T07:09:00.106Z,18.30
2018-10-12T07:10:00.064Z,18.24
2018-10-12T07:11:53.441Z,18.17
2018-10-12T07:12:53.428Z,18.30
2018-10-12T07:14:46.803Z,18.31
2018-10-12T07:15:46.780Z,18.27
2018-10-12T07:17:40.175Z,18.24
2018-10-12T07:18:40.163Z,18.18
2018-10-12T07:20:33.144Z,18.24
2018-10-12T07:21:33.039Z,18.20
2018-10-12T07:23:26.414Z,18.26
2018-10-12T07:24:26.398Z,18.21
2018-10-12T07:26:19.307Z,18.24
2018-10-12T07:27:19.856Z,18.27
2018-10-12T07:29:12.295Z,18.30
2018-10-12T07:30:12.141Z,18.26
2018-10-12T07:32:05.528Z,18.42
2018-10-12T07:33:05.512Z,18.42
2018-10-12T07:34:58.407Z,18.48
2018-10-12T07:35:58.407Z,18.58
2018-10-12T07:37:51.296Z,18.66
2018-10-12T07:38:51.264Z,18.67
2018-10-12T07:40:44.659Z,18.71
2018-10-12T07:41:44.639Z,18.67
2018-10-12T07:43:38.086Z,18.83
2018-10-12T07:44:38.004Z,18.88
2018-10-12T07:46:31.406Z,18.85
2018-10-12T07:47:31.437Z,18.89
2018-10-12T07:49:24.866Z,18.93
2018-10-12T07:50:24.754Z,19.00
2018-10-12T07:52:18.130Z,18.98
2018-10-12T07:53:18.205Z,19.08
2018-10-12T07:55:11.581Z,19.01
2018-10-12T07:56:11.484Z,19.16
2018-10-12T07:58:04.374Z,19.23
2018-10-12T07:59:04.368Z,19.24
2018-10-12T08:00:57.759Z,19.24
2018-10-12T08:01:57.745Z,19.19
2018-10-12T08:03:50.622Z,19.30
2018-10-12T08:04:50.593Z,19.27
2018-10-12T08:06:44.240Z,19.37
2018-10-12T08:07:43.992Z,19.30
2018-10-12T08:09:37.381Z,19.31
2018-10-12T08:10:37.350Z,19.41
2018-10-12T08:12:30.764Z,19.35
2018-10-12T08:13:30.748Z,19.42
2018-10-12T08:15:24.287Z,19.47
2018-10-12T08:16:24.124Z,19.53
2018-10-12T08:18:17.071Z,19.62
2018-10-12T08:19:16.984Z,19.60
2018-10-12T08:21:10.366Z,19.72
2018-10-12T08:22:10.353Z,19.78
2018-10-12T08:24:03.256Z,19.92
2018-10-12T08:25:03.263Z,19.86
2018-10-12T08:26:56.671Z,19.89
2018-10-12T08:27:56.588Z,19.89
2018-10-12T08:29:49.986Z,19.92
2018-10-12T08:30:49.981Z,19.94
2018-10-12T08:32:42.880Z,19.99
2018-10-12T08:33:42.848Z,20.07
2018-10-12T08:35:36.364Z,20.09
2018-10-12T08:36:36.244Z,20.09
2018-10-12T08:38:29.226Z,20.26
2018-10-12T08:39:29.126Z,20.27
2018-10-12T08:41:22.027Z,20.19
2018-10-12T08:42:21.996Z,20.27
2018-10-12T08:44:14.888Z,20.26
2018-10-12T08:45:14.881Z,20.37
2018-10-12T08:47:08.404Z,20.41
2018-10-12T08:48:08.265Z,20.37
2018-10-12T08:50:01.193Z,20.48
2018-10-12T08:51:01.164Z,20.39
2018-10-12T08:52:54.076Z,20.60
2018-10-12T08:53:54.169Z,20.41
2018-10-12T08:55:47.463Z,20.53
2018-10-12T08:56:47.435Z,20.61
2018-10-12T08:58:40.383Z,20.60
2018-10-12T08:59:40.330Z,20.64
2018-10-12T09:01:33.705Z,20.68
2018-10-12T09:02:33.711Z,20.73
2018-10-12T09:04:27.092Z,20.80
2018-10-12T09:05:27.126Z,20.83
2018-10-12T09:07:20.468Z,20.85
2018-10-12T09:08:20.442Z,20.80
2018-10-12T09:10:13.834Z,20.90
2018-10-12T09:11:13.810Z,20.90
2018-10-12T09:13:07.205Z,20.98
2018-10-12T09:14:07.182Z,21.01
2018-10-12T09:16:00.093Z,21.10
2018-10-12T09:17:00.090Z,21.14
2018-10-12T09:18:53.517Z,21.08
2018-10-12T09:19:53.464Z,21.07
2018-10-12T09:21:46.411Z,21.18
2018-10-12T09:22:46.349Z,21.16
2018-10-12T09:24:39.244Z,21.13
2018-10-12T09:25:39.227Z,21.18
2018-10-12T09:27:32.187Z,21.19
2018-10-12T09:28:32.126Z,21.22
2018-10-12T09:30:25.104Z,21.20
2018-10-12T09:31:25.004Z,21.19
2018-10-12T09:33:18.003Z,21.26
2018-10-12T09:34:17.900Z,21.22
2018-10-12T09:36:10.781Z,21.35
2018-10-12T09:37:10.769Z,21.41
2018-10-12T09:39:03.682Z,21.48
2018-10-12T09:40:03.660Z,21.47
2018-10-12T09:41:56.597Z,21.59
2018-10-12T09:42:56.542Z,21.55
2018-10-12T09:44:49.943Z,21.59
2018-10-12T09:45:49.916Z,21.71
2018-10-12T09:47:43.310Z,21.77
2018-10-12T09:48:43.297Z,21.82
2018-10-12T09:50:36.209Z,21.94
2018-10-12T09:51:36.195Z,22.06
2018-10-12T09:53:29.718Z,22.13
2018-10-12T09:54:30.119Z,22.28
2018-10-12T09:56:22.995Z,22.30
2018-10-12T09:57:22.944Z,22.25
2018-10-12T09:59:17.357Z,22.36
2018-10-12T10:00:15.840Z,22.36
2018-10-12T10:02:08.820Z,22.59
2018-10-12T10:03:08.746Z,22.66
2018-10-12T10:05:02.173Z,22.73
2018-10-12T10:06:02.113Z,22.67
2018-10-12T10:07:55.205Z,22.62
2018-10-12T10:08:55.047Z,22.74
2018-10-12T10:10:48.458Z,22.93
2018-10-12T10:11:47.882Z,22.88
2018-10-12T10:13:59.454Z,22.92
2018-10-12T10:14:59.680Z,22.91
2018-10-12T10:16:52.664Z,23.14
2018-10-12T10:17:52.616Z,23.10
2018-10-12T10:19:46.035Z,23.17
2018-10-12T10:20:46.008Z,23.08
2018-10-12T10:24:15.274Z,23.23
2018-10-12T10:25:11.049Z,23.46
2018-10-12T10:27:04.402Z,23.55
2018-10-12T10:28:04.371Z,23.48
2018-10-12T10:29:59.441Z,23.60
2018-10-12T10:30:57.620Z,23.64
2018-10-12T10:32:50.185Z,23.70
2018-10-12T10:33:50.157Z,23.71
2018-10-12T10:35:43.074Z,23.78
2018-10-12T10:36:43.046Z,23.74
2018-10-12T10:38:35.998Z,23.84
2018-10-12T10:39:36.067Z,23.85
2018-10-12T10:42:14.501Z,23.86
2018-10-12T10:43:14.426Z,23.86
2018-10-12T10:45:07.827Z,23.86
2018-10-12T10:46:07.826Z,23.85
2018-10-12T10:48:01.085Z,23.79
2018-10-12T10:49:01.067Z,23.82
2018-10-12T10:50:53.979Z,23.81
2018-10-12T10:51:53.953Z,23.88
2018-10-12T10:53:46.923Z,23.86
2018-10-12T10:54:46.857Z,23.82
2018-10-12T10:56:39.845Z,23.81
2018-10-12T10:57:39.841Z,23.92
2018-10-12T10:59:34.233Z,23.94
2018-10-12T11:00:34.219Z,23.96
2018-10-12T11:02:27.696Z,24.00
2018-10-12T11:03:27.663Z,24.06
2018-10-12T11:05:20.903Z,23.92
2018-10-12T11:06:20.627Z,23.94
2018-10-12T11:08:13.953Z,24.01
2018-10-12T11:09:13.944Z,23.91
2018-10-12T11:11:07.334Z,24.01
2018-10-12T11:12:07.356Z,23.98
2018-10-12T11:14:00.766Z,23.94
2018-10-12T11:15:00.707Z,23.98
2018-10-12T11:16:53.592Z,23.94
2018-10-12T11:17:53.571Z,23.92
2018-10-12T11:19:47.044Z,24.08
2018-10-12T11:20:46.892Z,24.03
2018-10-12T11:22:39.921Z,24.01
2018-10-12T11:23:39.914Z,24.07
2018-10-12T11:25:33.316Z,24.07
2018-10-12T11:26:33.342Z,24.08
2018-10-12T11:28:26.685Z,24.22
2018-10-12T11:29:26.682Z,24.31
2018-10-12T11:31:20.081Z,24.18
2018-10-12T11:32:20.062Z,24.28
2018-10-12T11:34:13.103Z,24.33
2018-10-12T11:35:12.950Z,24.34
2018-10-12T11:37:05.907Z,24.43
2018-10-12T11:38:08.701Z,24.44
2018-10-12T11:40:00.515Z,24.36
2018-10-12T11:42:56.379Z,24.34
2018-10-12T11:43:54.921Z,24.31
2018-10-12T11:45:47.848Z,24.37
2018-10-12T11:46:47.846Z,24.45
2018-10-12T11:48:41.234Z,24.45
2018-10-12T11:49:42.257Z,24.43
2018-10-12T11:51:34.677Z,24.44
2018-10-12T11:52:34.615Z,24.41
2018-10-12T11:54:27.493Z,24.48
2018-10-12T11:55:27.473Z,24.43
2018-10-12T11:57:20.992Z,24.58
2018-10-12T11:58:20.379Z,24.59
2018-10-12T12:00:13.275Z,24.58
2018-10-12T12:01:13.304Z,24.60
2018-10-12T12:03:06.159Z,24.66
2018-10-12T12:04:06.133Z,24.68
2018-10-12T12:05:59.611Z,24.68
2018-10-12T12:06:59.042Z,24.68
2018-10-12T12:08:51.952Z,24.79
2018-10-12T12:09:51.937Z,24.89
2018-10-12T12:11:44.847Z,24.79
2018-10-12T12:12:44.809Z,24.81
2018-10-12T12:14:38.215Z,24.81
2018-10-12T12:15:38.211Z,24.94
2018-10-12T12:17:31.620Z,24.91
2018-10-12T12:18:31.590Z,24.93
2018-10-12T12:20:25.038Z,25.04
2018-10-12T12:21:24.983Z,24.94
2018-10-12T12:23:18.384Z,25.04
2018-10-12T12:24:18.363Z,24.93
2018-10-12T12:26:11.788Z,24.90
2018-10-12T12:27:11.741Z,24.84
2018-10-12T12:29:05.174Z,24.97
2018-10-12T12:30:05.125Z,25.04
2018-10-12T12:31:58.069Z,25.06
2018-10-12T12:32:58.024Z,25.04
2018-10-12T12:34:52.596Z,24.99
2018-10-12T12:35:51.828Z,25.08
2018-10-12T12:37:44.899Z,25.03
2018-10-12T12:38:44.327Z,25.03
2018-10-12T12:40:37.231Z,24.96
2018-10-12T12:41:37.241Z,25.08
2018-10-12T12:43:30.713Z,24.86
2018-10-12T12:44:30.668Z,24.91
2018-10-12T12:46:24.130Z,24.97
2018-10-12T12:47:24.358Z,24.97
2018-10-12T12:49:17.852Z,25.09
2018-10-12T12:50:17.446Z,25.09
2018-10-12T12:52:10.840Z,25.08
2018-10-12T12:53:10.836Z,24.96
2018-10-12T12:55:03.750Z,24.96
2018-10-12T12:56:03.725Z,25.11
2018-10-12T12:57:56.661Z,25.18
2018-10-12T12:58:56.609Z,25.12
2018-10-12T13:00:50.094Z,25.19
2018-10-12T13:01:50.002Z,25.08
2018-10-12T13:03:43.390Z,25.06
2018-10-12T13:04:43.370Z,25.16
2018-10-12T13:06:36.892Z,24.99
2018-10-12T13:07:36.752Z,24.93
2018-10-12T13:09:30.188Z,24.96
2018-10-12T13:10:30.158Z,25.06
2018-10-12T13:12:23.575Z,25.01
2018-10-12T13:13:23.561Z,25.11
2018-10-12T13:15:17.638Z,25.28
2018-10-12T13:16:17.624Z,25.33
2018-10-12T13:18:11.406Z,25.34
2018-10-12T13:19:10.501Z,25.26
2018-10-12T13:21:03.992Z,25.16
2018-10-12T13:22:03.820Z,25.19
2018-10-12T13:23:56.982Z,25.08
2018-10-12T13:24:57.003Z,25.00
2018-10-12T13:26:51.399Z,25.08
2018-10-12T13:27:51.043Z,25.11
2018-10-12T13:29:44.438Z,24.91
2018-10-12T13:30:44.535Z,24.89
2018-10-12T13:32:37.842Z,24.99
2018-10-12T13:33:37.806Z,24.99
2018-10-12T13:35:31.516Z,25.01
2018-10-12T13:36:30.719Z,24.97
2018-10-12T13:38:24.147Z,24.96
2018-10-12T13:39:24.097Z,24.97
2018-10-12T13:41:17.028Z,24.99
2018-10-12T13:42:17.026Z,24.89
2018-10-12T13:44:11.773Z,25.00
2018-10-12T13:45:10.491Z,25.04
2018-10-12T13:47:05.305Z,25.18
2018-10-12T13:48:03.899Z,25.12
2018-10-12T13:49:59.675Z,25.22
2018-10-12T13:50:58.820Z,25.14
2018-10-12T13:52:54.741Z,25.16
2018-10-12T13:53:52.757Z,25.16
2018-10-12T13:55:46.766Z,25.21
2018-10-12T13:56:46.816Z,25.04
2018-10-12T13:58:54.119Z,25.18
2018-10-12T13:59:52.471Z,25.18
2018-10-12T14:01:46.041Z,25.12
2018-10-12T14:02:45.223Z,25.00
2018-10-12T14:04:39.794Z,24.99
2018-10-12T14:05:39.337Z,25.06
2018-10-12T14:07:31.987Z,24.97
2018-10-12T14:08:31.968Z,24.99
2018-10-12T14:10:24.914Z,25.00
2018-10-12T14:11:24.872Z,24.89
2018-10-12T14:13:18.275Z,24.94
2018-10-12T14:14:18.262Z,24.94
2018-10-12T14:16:11.208Z,24.97
2018-10-12T14:17:11.152Z,25.00
2018-10-12T14:19:05.603Z,25.06
2018-10-12T14:20:05.041Z,25.09
2018-10-12T14:21:58.397Z,25.09
2018-10-12T14:22:58.362Z,25.11
2018-10-12T14:24:51.812Z,25.11
2018-10-12T14:25:51.752Z,25.04
2018-10-12T14:27:45.205Z,25.15
2018-10-12T14:28:45.151Z,25.09
2018-10-12T14:30:38.541Z,25.12
2018-10-12T14:31:38.574Z,25.01
2018-10-12T14:33:31.564Z,24.97
2018-10-12T14:34:31.556Z,25.00
2018-10-12T14:36:24.483Z,24.86
2018-10-12T14:37:24.404Z,24.79
2018-10-12T14:39:17.332Z,24.90
2018-10-12T14:40:17.306Z,24.91
2018-10-12T14:42:10.203Z,24.97
2018-10-12T14:43:10.204Z,24.96
2018-10-12T14:45:03.673Z,24.99
2018-10-12T14:46:03.562Z,24.89
2018-10-12T14:47:56.974Z,24.97
2018-10-12T14:48:56.963Z,24.96
2018-10-12T14:50:49.967Z,25.00
2018-10-12T14:51:49.905Z,24.97
2018-10-12T14:53:42.797Z,24.96
2018-10-12T14:54:42.781Z,25.03
2018-10-12T14:56:37.023Z,24.93
2018-10-12T14:57:36.999Z,24.91
2018-10-12T14:59:30.441Z,24.91
2018-10-12T15:00:30.411Z,24.81
2018-10-12T15:02:23.792Z,24.76
2018-10-12T15:03:23.769Z,24.71
2018-10-12T15:05:16.800Z,24.66
2018-10-12T15:06:16.680Z,24.68
2018-10-12T15:08:10.077Z,24.74
2018-10-12T15:09:10.061Z,24.65
2018-10-12T15:11:02.964Z,24.65
2018-10-12T15:12:02.959Z,24.60
2018-10-12T15:13:55.955Z,24.55
2018-10-12T15:14:55.836Z,24.59
2018-10-12T15:16:49.283Z,24.62
2018-10-12T15:17:49.258Z,24.59
2018-10-12T15:19:42.175Z,24.59
2018-10-12T15:20:42.190Z,24.44
2018-10-12T15:22:35.076Z,24.52
2018-10-12T15:23:35.059Z,24.51
2018-10-12T15:25:27.971Z,24.52
2018-10-12T15:26:27.957Z,24.55
2018-10-12T15:28:21.390Z,24.51
2018-10-12T15:29:21.341Z,24.40
2018-10-12T15:31:14.289Z,24.44
2018-10-12T15:32:14.356Z,24.29
2018-10-12T15:34:07.688Z,24.44
2018-10-12T15:35:07.629Z,24.45
2018-10-12T15:37:01.030Z,24.43
2018-10-12T15:38:01.031Z,24.37
2018-10-12T15:39:54.418Z,24.26
2018-10-12T15:40:54.427Z,24.36
2018-10-12T15:42:47.868Z,24.22
2018-10-12T15:43:48.379Z,24.16
2018-10-12T15:45:40.698Z,24.25
2018-10-12T15:46:40.681Z,24.18
2018-10-12T15:48:34.083Z,24.13
2018-10-12T15:49:34.058Z,24.15
2018-10-12T15:51:27.489Z,24.08
2018-10-12T15:52:27.464Z,24.07
2018-10-12T15:54:20.845Z,24.06
2018-10-12T15:55:20.824Z,24.08
2018-10-12T15:57:13.763Z,24.04
2018-10-12T15:58:13.751Z,23.96
2018-10-12T16:00:07.131Z,23.97
2018-10-12T16:01:07.112Z,23.88
2018-10-12T16:03:00.029Z,23.82
2018-10-12T16:04:00.007Z,23.88
2018-10-12T16:05:53.404Z,23.79
2018-10-12T16:06:53.391Z,23.76
2018-10-12T16:08:47.370Z,23.73
2018-10-12T16:09:47.351Z,23.69
2018-10-12T16:11:40.246Z,23.63
2018-10-12T16:12:40.232Z,23.56
2018-10-12T16:14:33.694Z,23.51
2018-10-12T16:15:33.628Z,23.51
2018-10-12T16:17:26.520Z,23.55
2018-10-12T16:18:26.506Z,23.51
2018-10-12T16:20:19.920Z,23.48
2018-10-12T16:21:19.888Z,23.56
2018-10-12T16:23:13.287Z,23.49
2018-10-12T16:24:13.267Z,23.45
2018-10-12T16:26:06.678Z,23.54
2018-10-12T16:27:06.667Z,23.55
2018-10-12T16:29:00.085Z,23.42
2018-10-12T16:30:00.031Z,23.51
2018-10-12T16:31:52.942Z,23.39
2018-10-12T16:32:52.920Z,23.54
2018-10-12T16:34:45.856Z,23.44
2018-10-12T16:35:45.841Z,23.36
2018-10-12T16:37:39.221Z,23.44
2018-10-12T16:38:39.208Z,23.36
2018-10-12T16:40:32.592Z,23.37
2018-10-12T16:41:33.643Z,23.33
2018-10-12T16:43:26.123Z,23.26
2018-10-12T16:44:25.983Z,23.26
2018-10-12T16:46:19.464Z,23.21
2018-10-12T16:47:19.348Z,23.14
2018-10-12T16:49:12.774Z,23.14
2018-10-12T16:50:12.742Z,23.06
2018-10-12T16:52:06.199Z,23.07
2018-10-12T16:53:06.124Z,22.99
2018-10-12T16:54:59.533Z,23.03
2018-10-12T16:55:59.489Z,23.03
2018-10-12T16:57:52.466Z,22.96
2018-10-12T16:58:52.392Z,23.08
2018-10-12T17:00:45.813Z,22.93
2018-10-12T17:01:45.758Z,22.91
2018-10-12T17:03:39.301Z,22.83
2018-10-12T17:04:39.257Z,22.85
2018-10-12T17:06:32.645Z,22.73
2018-10-12T17:07:32.650Z,22.73
2018-10-12T17:09:26.030Z,22.68
2018-10-12T17:10:26.003Z,22.66
2018-10-12T17:12:18.912Z,22.71
2018-10-12T17:13:18.892Z,22.74
2018-10-12T17:15:12.297Z,22.67
2018-10-12T17:16:12.275Z,22.64
2018-10-12T17:18:05.211Z,22.68
2018-10-12T17:19:05.178Z,22.62
2018-10-12T17:20:58.566Z,22.56
2018-10-12T17:21:58.541Z,22.59
2018-10-12T17:23:51.500Z,22.68
2018-10-12T17:24:51.456Z,22.66
2018-10-12T17:26:44.367Z,22.74
2018-10-12T17:27:44.388Z,22.67
2018-10-12T17:29:37.851Z,22.51
2018-10-12T17:30:37.747Z,22.51
2018-10-12T17:32:30.676Z,22.52
2018-10-12T17:33:31.170Z,22.49
2018-10-12T17:35:24.009Z,22.44
2018-10-12T17:36:23.979Z,22.46
2018-10-12T17:38:17.444Z,22.51
2018-10-12T17:39:16.865Z,22.41
2018-10-12T17:41:10.288Z,22.36
2018-10-12T17:42:10.259Z,22.37
2018-10-12T17:44:03.221Z,22.40
2018-10-12T17:45:03.182Z,22.34
2018-10-12T17:46:56.195Z,22.33
2018-10-12T17:47:56.159Z,22.25
2018-10-12T17:49:49.732Z,22.27
2018-10-12T17:50:49.546Z,22.30
2018-10-12T17:52:42.430Z,22.28
2018-10-12T17:53:42.433Z,22.27
2018-10-12T17:55:35.431Z,22.31
2018-10-12T17:56:35.317Z,22.30
2018-10-12T17:58:28.331Z,22.31
2018-10-12T17:59:28.410Z,22.33
2018-10-12T18:01:21.933Z,22.27
2018-10-12T18:02:21.683Z,22.19
2018-10-12T18:04:15.166Z,22.22
2018-10-12T18:05:15.131Z,22.19
2018-10-12T18:07:08.103Z,22.13
2018-10-12T18:08:08.059Z,22.16
2018-10-12T18:10:01.666Z,22.09
2018-10-12T18:11:01.635Z,22.09
2018-10-12T18:12:55.116Z,22.04
2018-10-12T18:13:54.869Z,22.07
2018-10-12T18:15:48.242Z,22.06
2018-10-12T18:16:48.252Z,22.06
2018-10-12T18:18:41.185Z,22.07
2018-10-12T18:19:41.156Z,22.04
2018-10-12T18:21:34.667Z,21.98
2018-10-12T18:22:34.481Z,22.00
2018-10-12T18:24:27.477Z,22.07
2018-10-12T18:25:27.372Z,21.98
2018-10-12T18:27:20.300Z,22.06
2018-10-12T18:28:20.239Z,22.09
2018-10-12T18:30:13.909Z,22.04
2018-10-12T18:31:13.669Z,21.97
2018-10-12T18:33:07.080Z,21.94
2018-10-12T18:34:07.048Z,21.84
2018-10-12T18:36:00.107Z,21.88
2018-10-12T18:37:00.101Z,21.74
2018-10-12T18:38:53.349Z,21.67
2018-10-12T18:39:53.323Z,21.62
2018-10-12T18:41:46.206Z,21.65
2018-10-12T18:42:46.182Z,21.60